Terminal Aerodrome Forecast
Issued by NWS

Home | Current Version | Previous Version | Graphics & Text | Print | Product List | Glossary On
Versions: 1 2 3 4 5 6 7 8 9 10 11 12 13 14 15 16 17 18 19 20 21 22 23
000
FTUS43 KBIS 060544
TAFJMS
TAF
KJMS 060544Z 0606/0706 36007KT 3SM FU BKN040 BKN090
      TEMPO 0606/0610 2SM FU
     FM061000 36007KT 2SM FU BKN035 BKN150
      TEMPO 0610/0614 1SM BR FU BKN030 BKN150
     FM061700 36015KT 4SM FU BKN040 BKN090
     FM062200 35014KT 5SM FU SCT040
     FM070200 36004KT 4SM FU SKC=

USA.gov is the U.S. government's official web portal to all federal, state and local government web resources and services.